Time;durP1;ratioP1;P1;durP2;ratioP2;P2;SDS_P1;SDS_P2;PMS_P1;PMS_P2;Temp;Humidity;BMP_temperature;BMP_pressure;BME280_temperature;BME280_humidity;BME280_pressure;Samples;Min_cycle;Max_cycle;Signal;HPM_P1;HPM_P2
2022/06/20 00:00:27;;;;;;;12.32;4.10;;;;;;;13.71;100.00;99362.25;4903608;29;20128;-82
2022/06/20 00:02:57;;;;;;;7.13;3.85;;;;;;;13.61;100.00;99365.31;4904720;29;20479;-81
2022/06/20 00:05:29;;;;;;;11.00;4.03;;;;;;;13.50;100.00;99369.41;4889368;29;20067;-82
2022/06/20 00:07:55;;;;;;;11.98;4.80;;;;;;;13.38;100.00;99368.41;4903481;29;20453;-82
2022/06/20 00:10:24;;;;;;;10.25;4.32;;;;;;;13.32;100.00;99370.00;4909111;29;20035;-82
2022/06/20 00:12:52;;;;;;;9.65;4.63;;;;;;;13.14;100.00;99374.06;4909545;29;20032;-83
2022/06/20 00:15:30;;;;;;;9.48;3.88;;;;;;;13.08;100.00;99364.34;4910125;29;20415;-82
2022/06/20 00:17:59;;;;;;;9.85;3.72;;;;;;;13.06;100.00;99366.34;4889342;29;20483;-82
2022/06/20 00:20:25;;;;;;;11.73;4.47;;;;;;;13.05;100.00;99364.72;4890859;29;20192;-81
2022/06/20 00:22:52;;;;;;;9.10;4.00;;;;;;;13.12;100.00;99370.00;4889512;29;20129;-82
2022/06/20 00:25:19;;;;;;;9.63;3.78;;;;;;;13.09;100.00;99357.25;4891551;29;20119;-82
2022/06/20 00:27:46;;;;;;;10.40;3.67;;;;;;;13.02;100.00;99354.59;4906333;29;20036;-82
2022/06/20 00:30:15;;;;;;;9.35;3.85;;;;;;;12.95;100.00;99353.81;4870798;29;20135;-83
2022/06/20 00:32:40;;;;;;;8.25;3.60;;;;;;;13.00;100.00;99351.34;4905943;29;20170;-84
2022/06/20 00:35:07;;;;;;;10.43;3.50;;;;;;;12.86;100.00;99351.34;4908997;29;20537;-84
2022/06/20 00:37:32;;;;;;;9.13;4.30;;;;;;;12.70;100.00;99352.56;4906973;29;20047;-82
2022/06/20 00:39:58;;;;;;;11.05;3.72;;;;;;;12.85;100.00;99362.09;4894086;29;20036;-83
2022/06/20 00:42:24;;;;;;;8.35;3.40;;;;;;;12.73;100.00;99345.25;4906890;29;20428;-84
2022/06/20 00:44:56;;;;;;;12.27;4.00;;;;;;;12.88;100.00;99356.44;4897704;29;20031;-85
2022/06/20 00:47:27;;;;;;;12.00;3.85;;;;;;;12.77;100.00;99351.75;4905726;29;20039;-84
2022/06/20 00:50:05;;;;;;;6.55;3.60;;;;;;;12.90;100.00;99359.66;4888570;29;20119;-84
2022/06/20 00:52:43;;;;;;;12.13;4.65;;;;;;;12.94;100.00;99363.50;4908630;29;20123;-84
2022/06/20 00:55:26;;;;;;;6.03;3.42;;;;;;;12.84;100.00;99368.38;4905179;29;20032;-82
2022/06/20 00:58:28;;;;;;;7.43;4.05;;;;;;;12.78;100.00;99363.94;4887054;29;20032;-82
2022/06/20 01:00:56;;;;;;;8.02;3.97;;;;;;;12.79;100.00;99371.63;4911414;29;20085;-81
2022/06/20 01:03:27;;;;;;;8.90;4.55;;;;;;;12.73;100.00;99375.06;4903282;29;20106;-81
2022/06/20 01:06:02;;;;;;;9.02;3.80;;;;;;;12.72;100.00;99383.97;4889279;29;20040;-81
2022/06/20 01:08:43;;;;;;;10.02;3.58;;;;;;;12.57;100.00;99386.75;4903866;29;20052;-81
2022/06/20 01:11:22;;;;;;;7.32;4.00;;;;;;;12.33;100.00;99381.03;4868365;29;20440;-83
2022/06/20 01:13:48;;;;;;;8.68;3.85;;;;;;;12.41;100.00;99388.75;4904899;29;20043;-82
2022/06/20 01:16:14;;;;;;;8.57;3.97;;;;;;;12.51;100.00;99391.03;4891807;29;20387;-82
2022/06/20 01:18:42;;;;;;;10.13;3.72;;;;;;;12.55;100.00;99397.50;4903252;29;20043;-84
2022/06/20 01:21:33;;;;;;;9.52;4.00;;;;;;;12.49;100.00;99392.22;4902806;29;20031;-82
2022/06/20 01:24:31;;;;;;;7.53;3.78;;;;;;;12.54;100.00;99400.31;4891308;29;20049;-82
2022/06/20 01:27:42;;;;;;;9.82;4.05;;;;;;;12.47;100.00;99407.41;4906247;29;20040;-82
2022/06/20 01:30:08;;;;;;;7.82;3.90;;;;;;;12.47;100.00;99405.56;4807783;29;20597;-82
2022/06/20 01:32:36;;;;;;;11.30;4.35;;;;;;;12.37;100.00;99394.63;4812527;29;20374;-82
2022/06/20 01:35:07;;;;;;;8.77;4.05;;;;;;;12.39;100.00;99393.41;4860286;29;20075;-82
2022/06/20 01:37:35;;;;;;;9.50;4.07;;;;;;;12.26;100.00;99398.63;4904592;29;20032;-81
2022/06/20 01:40:09;;;;;;;10.40;4.57;;;;;;;12.29;100.00;99392.97;4886696;29;20092;-84
2022/06/20 01:42:36;;;;;;;7.70;3.70;;;;;;;12.19;100.00;99385.44;4894744;29;20505;-82
2022/06/20 01:48:11;;;;;;;8.10;4.15;;;;;;;12.26;100.00;99374.94;4888327;29;20087;-82
2022/06/20 01:50:38;;;;;;;10.95;4.28;;;;;;;12.27;100.00;99379.19;4905328;29;20037;-84
2022/06/20 01:53:07;;;;;;;8.82;3.85;;;;;;;12.28;100.00;99376.38;4909514;29;20028;-82
2022/06/20 01:55:35;;;;;;;11.63;4.90;;;;;;;12.20;100.00;99373.09;4905560;29;20044;-81
2022/06/20 01:58:25;;;;;;;9.48;4.47;;;;;;;12.14;100.00;99372.06;4903373;29;20032;-82
2022/06/20 02:00:51;;;;;;;6.57;4.05;;;;;;;12.08;100.00;99376.28;4885726;29;20040;-82
2022/06/20 02:03:19;;;;;;;9.35;4.43;;;;;;;12.12;100.00;99376.72;4901744;29;20088;-84
2022/06/20 02:05:48;;;;;;;13.48;4.55;;;;;;;12.01;100.00;99370.19;4902123;29;20040;-84
2022/06/20 02:08:18;;;;;;;11.40;4.20;;;;;;;11.99;100.00;99378.22;4887699;29;20045;-81
2022/06/20 02:10:51;;;;;;;10.52;4.63;;;;;;;11.92;100.00;99381.84;4907116;29;20028;-84
2022/06/20 02:13:19;;;;;;;9.00;4.32;;;;;;;11.97;100.00;99389.94;4906179;29;20562;-83
2022/06/20 02:15:48;;;;;;;14.95;4.95;;;;;;;11.85;100.00;99382.63;4901365;29;20075;-85
2022/06/20 02:18:17;;;;;;;12.32;4.60;;;;;;;11.75;100.00;99383.97;4904573;29;20048;-83
2022/06/20 02:20:47;;;;;;;13.52;5.47;;;;;;;11.73;100.00;99378.09;4905725;29;20118;-83
2022/06/20 02:23:20;;;;;;;10.45;4.13;;;;;;;11.86;100.00;99386.88;4902391;29;20033;-84
2022/06/20 02:25:49;;;;;;;10.20;4.30;;;;;;;11.79;100.00;99378.16;4904111;29;20039;-84
2022/06/20 02:28:38;;;;;;;12.10;4.95;;;;;;;11.83;100.00;99384.63;4889934;29;20032;-84
2022/06/20 02:31:07;;;;;;;12.32;4.90;;;;;;;11.87;100.00;99395.56;4901593;29;20032;-84
2022/06/20 02:33:33;;;;;;;13.55;4.90;;;;;;;11.84;100.00;99391.53;4905026;29;20040;-82
2022/06/20 02:36:02;;;;;;;13.18;4.80;;;;;;;11.92;100.00;99382.66;4885458;29;20142;-82
2022/06/20 02:38:28;;;;;;;11.18;5.05;;;;;;;11.99;100.00;99377.44;4906008;29;20031;-82
2022/06/20 02:40:56;;;;;;;10.82;4.70;;;;;;;12.11;100.00;99375.09;4900906;29;20036;-82
2022/06/20 02:43:43;;;;;;;10.80;4.55;;;;;;;12.09;100.00;99383.16;4905411;29;20065;-81
2022/06/20 02:46:13;;;;;;;22.20;5.43;;;;;;;12.24;100.00;99372.50;4890482;29;20513;-81
2022/06/20 02:48:43;;;;;;;14.15;4.90;;;;;;;12.28;100.00;99383.44;4890867;29;20479;-82
2022/06/20 02:51:15;;;;;;;9.95;4.65;;;;;;;12.25;100.00;99381.22;4905509;29;20067;-82
2022/06/20 02:53:49;;;;;;;10.50;4.47;;;;;;;12.20;100.00;99399.41;4902416;29;20032;-82
2022/06/20 02:56:18;;;;;;;8.32;4.10;;;;;;;12.28;100.00;99391.34;4885735;29;20033;-82
2022/06/20 02:58:49;;;;;;;9.00;4.60;;;;;;;12.04;100.00;99385.56;4904633;29;20447;-82
2022/06/20 03:01:18;;;;;;;12.50;4.50;;;;;;;11.99;100.00;99383.50;4904924;29;20071;-82
2022/06/20 03:03:48;;;;;;;9.27;5.05;;;;;;;12.00;100.00;99386.94;4902333;29;20055;-82
2022/06/20 03:06:46;;;;;;;9.07;4.13;;;;;;;11.95;100.00;99381.44;4868972;29;20040;-85
2022/06/20 03:09:16;;;;;;;7.65;4.28;;;;;;;11.81;100.00;99396.34;4891430;29;20407;-82
2022/06/20 03:11:43;;;;;;;9.32;4.20;;;;;;;11.83;100.00;99405.69;4885551;29;20064;-82
2022/06/20 03:14:13;;;;;;;9.45;4.50;;;;;;;11.89;100.00;99403.28;4890027;29;20040;-81
2022/06/20 03:16:39;;;;;;;13.70;4.97;;;;;;;11.73;100.00;99399.94;4909760;29;20398;-82
2022/06/20 03:19:09;;;;;;;8.30;4.43;;;;;;;11.77;100.00;99422.22;4903608;29;20047;-82
2022/06/20 03:21:38;;;;;;;11.38;4.70;;;;;;;11.74;100.00;99424.44;4908643;29;20063;-82
2022/06/20 03:24:05;;;;;;;7.63;4.25;;;;;;;11.65;100.00;99423.78;4904445;29;20428;-82
2022/06/20 03:26:30;;;;;;;8.93;4.15;;;;;;;11.68;100.00;99436.53;4898832;29;20032;-82
2022/06/20 03:28:58;;;;;;;9.13;4.82;;;;;;;11.64;100.00;99445.81;4899655;29;20028;-81
2022/06/20 03:31:24;;;;;;;10.43;4.70;;;;;;;11.61;100.00;99446.19;4909318;29;20415;-82
2022/06/20 03:33:50;;;;;;;6.65;4.00;;;;;;;11.54;100.00;99449.56;4907383;29;20091;-82
2022/06/20 03:36:22;;;;;;;10.95;4.72;;;;;;;11.63;100.00;99460.75;4910897;29;20443;-82
2022/06/20 03:38:49;;;;;;;9.68;4.93;;;;;;;11.68;100.00;99465.44;4902460;29;20063;-82
2022/06/20 03:41:21;;;;;;;11.38;5.15;;;;;;;11.70;100.00;99471.31;4907722;29;20052;-82
2022/06/20 03:43:59;;;;;;;9.00;4.53;;;;;;;11.69;100.00;99480.22;4909124;29;20035;-81
2022/06/20 03:46:35;;;;;;;10.85;4.65;;;;;;;11.71;100.00;99480.84;4895523;29;20040;-82
2022/06/20 03:49:04;;;;;;;11.50;4.63;;;;;;;11.84;100.00;99483.59;4890419;29;20438;-82
2022/06/20 03:52:03;;;;;;;12.07;4.90;;;;;;;11.81;100.00;99480.50;4895089;29;20115;-82
2022/06/20 03:54:46;;;;;;;10.75;4.82;;;;;;;11.84;100.00;99486.22;4874731;29;20048;-83
2022/06/20 03:57:21;;;;;;;9.90;5.07;;;;;;;11.68;100.00;99486.50;4905104;29;20036;-82
2022/06/20 03:59:55;;;;;;;14.15;4.95;;;;;;;11.84;100.00;99493.28;4886267;29;20032;-82
2022/06/20 04:02:28;;;;;;;14.23;4.85;;;;;;;11.64;100.00;99496.56;4904002;29;20043;-82
2022/06/20 04:05:26;;;;;;;11.45;4.80;;;;;;;11.69;100.00;99488.13;4908094;29;20036;-82
2022/06/20 04:07:56;;;;;;;11.23;4.55;;;;;;;11.85;100.00;99487.84;4903529;29;20036;-83
2022/06/20 04:13:23;;;;;;;9.52;4.45;;;;;;;12.16;100.00;99504.25;4906350;29;20541;-83
2022/06/20 04:15:54;;;;;;;10.80;4.75;;;;;;;12.03;100.00;99499.72;4874585;29;20042;-82
2022/06/20 04:18:38;;;;;;;8.95;4.13;;;;;;;12.35;100.00;99513.25;4889186;29;20491;-82
2022/06/20 04:21:07;;;;;;;9.68;4.32;;;;;;;12.24;100.00;99514.63;4890005;29;20411;-81
2022/06/20 04:23:57;;;;;;;11.38;4.68;;;;;;;12.45;100.00;99512.09;4901073;29;20024;-82
2022/06/20 04:27:01;;;;;;;8.27;3.95;;;;;;;12.36;100.00;99514.06;4908740;29;20036;-81
2022/06/20 04:29:53;;;;;;;8.60;4.13;;;;;;;12.63;100.00;99515.03;4853549;29;20060;-83
2022/06/20 04:32:45;;;;;;;11.57;4.50;;;;;;;12.85;100.00;99515.69;4903526;29;20042;-84
2022/06/20 04:35:17;;;;;;;9.48;3.90;;;;;;;12.73;100.00;99521.72;4905445;29;20043;-83
2022/06/20 04:38:03;;;;;;;10.18;4.10;;;;;;;13.05;100.00;99527.31;4909347;29;20507;-83
2022/06/20 04:40:39;;;;;;;8.88;3.95;;;;;;;13.18;100.00;99522.09;4888163;29;20036;-82
2022/06/20 04:43:10;;;;;;;8.02;3.83;;;;;;;13.17;100.00;99527.56;4904151;29;20036;-82
2022/06/20 04:46:01;;;;;;;6.40;4.20;;;;;;;13.27;100.00;99526.16;4905001;29;20036;-82
2022/06/20 04:48:28;;;;;;;11.77;4.00;;;;;;;13.06;100.00;99521.84;4892655;29;20035;-81
2022/06/20 04:51:00;;;;;;;11.65;3.90;;;;;;;13.04;100.00;99525.69;4888099;29;20036;-81
2022/06/20 04:53:33;;;;;;;8.35;4.38;;;;;;;13.09;100.00;99536.44;4905690;29;20127;-82
2022/06/20 04:56:03;;;;;;;7.80;3.72;;;;;;;13.12;100.00;99541.31;4887440;29;20036;-83
2022/06/20 04:58:34;;;;;;;16.73;4.32;;;;;;;12.78;100.00;99548.31;4903299;29;20036;-82
2022/06/20 05:01:01;;;;;;;11.02;4.28;;;;;;;12.85;100.00;99528.06;4891479;29;20543;-83
2022/06/20 05:03:35;;;;;;;11.63;4.20;;;;;;;12.82;100.00;99539.00;4904912;29;20052;-83
2022/06/20 05:06:04;;;;;;;12.45;4.60;;;;;;;12.74;100.00;99532.09;4889477;29;20115;-82
2022/06/20 05:08:33;;;;;;;8.85;4.40;;;;;;;12.70;100.00;99538.75;4906423;29;20059;-83
2022/06/20 05:11:11;;;;;;;6.65;3.60;;;;;;;12.76;100.00;99532.69;4901805;29;20028;-83
2022/06/20 05:13:47;;;;;;;6.45;3.70;;;;;;;12.83;100.00;99538.00;4905739;29;20408;-83
2022/06/20 05:16:19;;;;;;;7.28;3.55;;;;;;;12.70;100.00;99536.13;4904936;29;20032;-84
2022/06/20 05:18:50;;;;;;;12.77;4.03;;;;;;;12.64;100.00;99531.63;4890495;29;20238;-82
2022/06/20 05:21:24;;;;;;;10.02;4.20;;;;;;;12.71;100.00;99538.53;4887648;29;20108;-83
2022/06/20 05:23:54;;;;;;;11.00;3.70;;;;;;;12.78;100.00;99543.84;4903555;29;20032;-83
2022/06/20 05:26:23;;;;;;;8.27;3.30;;;;;;;12.85;100.00;99549.16;4873089;29;20042;-84
2022/06/20 05:28:51;;;;;;;11.10;4.57;;;;;;;12.78;100.00;99543.06;4889328;29;20421;-83
2022/06/20 05:31:32;;;;;;;12.88;4.28;;;;;;;12.90;100.00;99554.63;4904721;29;20035;-83
2022/06/20 05:34:33;;;;;;;9.57;3.97;;;;;;;12.93;100.00;99554.22;4902847;29;20036;-82
2022/06/20 05:37:06;;;;;;;11.20;4.15;;;;;;;12.90;100.00;99551.19;4894903;29;20041;-87
2022/06/20 05:39:41;;;;;;;10.27;4.13;;;;;;;13.01;100.00;99555.88;4906056;29;20079;-89
2022/06/20 05:42:11;;;;;;;6.38;3.78;;;;;;;13.14;100.00;99552.47;4908558;29;20046;-89
2022/06/20 05:44:37;;;;;;;9.93;4.10;;;;;;;13.14;100.00;99569.13;4889007;29;20060;-86
2022/06/20 05:47:08;;;;;;;8.38;4.15;;;;;;;12.96;100.00;99567.00;4889263;29;20024;-86
2022/06/20 05:49:40;;;;;;;10.52;3.88;;;;;;;12.84;100.00;99563.34;4888726;29;20111;-86
2022/06/20 05:52:08;;;;;;;9.97;4.00;;;;;;;13.14;100.00;99563.84;4889988;29;20039;-88
2022/06/20 05:54:55;;;;;;;10.75;3.53;;;;;;;13.22;100.00;99565.50;4888519;29;20465;-87
2022/06/20 05:57:24;;;;;;;8.25;3.90;;;;;;;13.37;100.00;99567.16;4868866;29;20538;-88
2022/06/20 05:59:54;;;;;;;12.65;5.05;;;;;;;13.27;100.00;99568.34;4905514;29;20548;-88
2022/06/20 06:02:39;;;;;;;9.63;4.28;;;;;;;13.37;100.00;99572.44;4909502;29;20036;-89
2022/06/20 06:05:43;;;;;;;13.52;4.63;;;;;;;13.25;100.00;99562.44;4870056;29;20055;-88
2022/06/20 06:08:14;;;;;;;8.15;3.97;;;;;;;13.31;100.00;99575.84;4878304;29;20075;-87
2022/06/20 06:11:01;;;;;;;8.27;3.90;;;;;;;13.38;100.00;99574.84;4907039;29;20023;-88
2022/06/20 06:13:46;;;;;;;14.00;3.92;;;;;;;13.32;100.00;99556.38;4903577;29;20469;-87
2022/06/20 06:16:46;;;;;;;12.52;4.80;;;;;;;13.48;100.00;99558.66;4906784;29;20036;-87
2022/06/20 06:19:42;;;;;;;10.50;4.07;;;;;;;13.49;100.00;99570.03;4906503;29;20472;-88
2022/06/20 06:22:14;;;;;;;11.25;4.63;;;;;;;13.60;100.00;99576.56;4902851;29;20028;-88
2022/06/20 06:24:44;;;;;;;10.55;4.35;;;;;;;13.75;100.00;99582.44;4889792;29;20175;-89
2022/06/20 06:27:19;;;;;;;10.10;3.97;;;;;;;13.60;100.00;99573.91;4895831;29;20052;-86
2022/06/20 06:30:01;;;;;;;10.68;4.25;;;;;;;13.70;100.00;99579.59;4889322;29;20029;-87
2022/06/20 06:32:33;;;;;;;8.13;4.05;;;;;;;13.66;100.00;99578.38;4906252;29;20408;-87
2022/06/20 06:35:11;;;;;;;7.27;3.67;;;;;;;13.83;100.00;99582.25;4902968;29;20032;-85
2022/06/20 06:37:55;;;;;;;10.23;4.20;;;;;;;13.82;100.00;99585.91;4888511;29;20052;-85
2022/06/20 06:40:38;;;;;;;12.85;4.10;;;;;;;14.00;100.00;99577.38;4889286;29;20028;-83
2022/06/20 06:43:29;;;;;;;8.93;3.80;;;;;;;13.88;100.00;99572.91;4887046;29;20036;-87
2022/06/20 06:46:12;;;;;;;;;;;;;;;;;;;;;
2022/06/20 06:48:58;;;;;;;;;;;;;;;13.91;100.00;99585.69;4887999;29;20044;-87
2022/06/20 06:51:34;;;;;;;9.45;4.05;;;;;;;13.84;100.00;99581.22;4871087;29;19998;-86
2022/06/20 06:54:11;;;;;;;9.60;4.63;;;;;;;13.95;100.00;99577.16;4888565;29;20475;-86
2022/06/20 06:57:05;;;;;;;10.40;4.07;;;;;;;13.93;100.00;99570.47;4886906;29;20136;-86
2022/06/20 07:00:03;;;;;;;8.48;3.95;;;;;;;13.95;100.00;99571.06;4887672;29;20037;-83
2022/06/20 07:02:38;;;;;;;12.80;4.82;;;;;;;14.19;100.00;99560.91;4883040;29;20048;-84
2022/06/20 07:05:30;;;;;;;10.25;3.70;;;;;;;13.94;100.00;99557.06;4884458;29;20032;-87
2022/06/20 07:08:05;;;;;;;13.85;4.45;;;;;;;14.01;100.00;99572.91;4876583;29;20041;-87
2022/06/20 07:10:40;;;;;;;12.00;4.18;;;;;;;14.19;100.00;99582.03;4866600;29;21531;-82
2022/06/20 07:13:21;;;;;;;17.00;4.65;;;;;;;14.08;100.00;99565.78;4886349;29;20554;-85
2022/06/20 07:15:53;;;;;;;9.55;4.00;;;;;;;14.14;100.00;99578.16;4873179;29;20044;-87
2022/06/20 07:18:42;;;;;;;9.88;4.32;;;;;;;14.06;100.00;99590.78;4889341;29;20456;-86
2022/06/20 07:21:15;;;;;;;7.82;3.75;;;;;;;14.43;100.00;99580.56;4888931;29;20028;-87
2022/06/20 07:23:42;;;;;;;8.95;3.58;;;;;;;14.39;100.00;99569.63;4876004;29;20467;-87
2022/06/20 07:26:10;;;;;;;10.93;4.18;;;;;;;14.50;100.00;99576.09;4889737;29;20080;-87
2022/06/20 07:28:42;;;;;;;7.50;3.88;;;;;;;14.84;100.00;99576.00;4876638;29;20173;-87
2022/06/20 07:31:21;;;;;;;11.23;4.05;;;;;;;15.17;100.00;99585.66;4889299;29;20032;-87
2022/06/20 07:34:01;;;;;;;10.52;4.00;;;;;;;15.52;100.00;99579.94;4912263;29;20571;-87
2022/06/20 07:36:42;;;;;;;11.05;3.90;;;;;;;15.64;100.00;99566.03;4878125;29;20037;-87
2022/06/20 07:39:17;;;;;;;7.60;3.42;;;;;;;15.50;99.88;99574.03;4906441;29;20391;-84
2022/06/20 07:41:51;;;;;;;12.30;3.47;;;;;;;15.61;98.73;99574.41;4886756;29;20036;-85
2022/06/20 07:44:29;;;;;;;7.07;3.50;;;;;;;15.45;97.29;99579.16;4887057;29;20466;-83
2022/06/20 07:47:05;;;;;;;9.32;3.53;;;;;;;15.53;97.57;99578.94;4907542;29;20032;-84
2022/06/20 07:49:59;;;;;;;8.00;3.38;;;;;;;15.98;97.13;99579.84;4910993;29;20063;-84
2022/06/20 07:52:50;;;;;;;6.60;3.45;;;;;;;15.88;94.42;99566.25;4906122;29;20076;-87
2022/06/20 07:55:20;;;;;;;7.97;3.78;;;;;;;16.09;94.08;99567.72;4884055;29;20048;-84
2022/06/20 07:58:46;;;;;;;7.30;3.63;;;;;;;16.38;93.16;99571.53;4903901;29;20555;-85
2022/06/20 08:01:30;;;;;;;9.70;4.07;;;;;;;16.47;92.72;99571.22;4873217;29;20044;-85
2022/06/20 08:04:01;;;;;;;11.20;4.13;;;;;;;16.26;93.76;99552.91;4906692;29;20114;-87
2022/06/20 08:06:30;;;;;;;9.88;4.15;;;;;;;16.18;94.45;99562.97;4876866;29;20125;-88
2022/06/20 08:09:33;;;;;;;11.35;3.83;;;;;;;16.07;95.30;99556.56;4908467;29;20048;-88
2022/06/20 08:12:15;;;;;;;6.75;3.85;;;;;;;15.83;96.22;99562.41;4790852;29;20030;-87
2022/06/20 08:15:02;;;;;;;6.32;3.90;;;;;;;15.50;95.28;99573.25;4883457;29;20551;-88
2022/06/20 08:17:29;;;;;;;10.38;3.80;;;;;;;15.59;94.83;99563.22;4891096;29;20057;-87
2022/06/20 08:19:59;;;;;;;9.90;4.22;;;;;;;15.62;95.53;99544.25;4905295;29;20392;-89
2022/06/20 08:22:42;;;;;;;10.63;3.95;;;;;;;15.69;94.80;99545.00;4904156;29;20032;-87
2022/06/20 08:25:44;;;;;;;10.55;4.00;;;;;;;15.76;94.24;99561.66;4908354;29;20092;-88
2022/06/20 08:28:21;;;;;;;12.23;4.00;;;;;;;15.70;92.85;99567.81;4906130;29;20039;-88
2022/06/20 08:31:19;;;;;;;12.20;3.85;;;;;;;15.82;94.18;99555.50;4908787;29;20136;-87
2022/06/20 08:33:52;;;;;;;10.80;3.55;;;;;;;16.05;93.16;99570.00;4912582;29;20094;-87
2022/06/20 08:37:05;;;;;;;8.82;3.90;;;;;;;15.57;90.60;99580.13;4890462;29;20048;-87
2022/06/20 08:39:49;;;;;;;7.45;4.18;;;;;;;15.97;91.76;99573.72;4906335;29;20052;-88
2022/06/20 08:43:01;;;;;;;11.07;3.95;;;;;;;15.84;91.12;99574.63;4917642;29;20432;-89
2022/06/20 08:46:04;;;;;;;6.55;3.38;;;;;;;15.82;90.31;99581.16;4853768;29;20487;-89
2022/06/20 08:49:11;;;;;;;8.93;3.60;;;;;;;15.83;91.92;99578.28;4907893;29;20025;-86
2022/06/20 08:52:06;;;;;;;8.30;3.40;;;;;;;16.07;91.50;99567.16;4902792;29;20380;-90
2022/06/20 08:54:52;;;;;;;;;;;;;;;15.93;91.53;99547.94;4887988;29;20127;-91
2022/06/20 08:57:44;;;;;;;10.38;3.90;;;;;;;16.09;90.00;99550.00;4910528;29;19915;-89
2022/06/20 09:00:28;;;;;;;14.95;4.28;;;;;;;15.98;89.57;99558.66;4892409;29;20032;-90
2022/06/20 09:03:12;;;;;;;6.45;3.55;;;;;;;16.22;89.59;99562.31;4911709;29;20482;-90
2022/06/20 09:05:50;;;;;;;13.10;3.72;;;;;;;16.16;89.13;99557.88;4895149;29;20490;-90
2022/06/20 09:08:41;;;;;;;10.43;3.92;;;;;;;16.36;89.07;99548.91;4907280;29;20041;-90
2022/06/20 09:11:15;;;;;;;8.40;3.45;;;;;;;16.48;87.50;99549.00;4909871;29;20494;-90
2022/06/20 09:13:42;;;;;;;9.38;3.50;;;;;;;16.24;88.39;99562.09;4901722;29;20123;-90
2022/06/20 09:16:17;;;;;;;6.07;3.08;;;;;;;16.52;88.85;99558.94;4893678;29;21947;-90
2022/06/20 09:19:16;;;;;;;7.53;3.22;;;;;;;16.46;87.70;99564.31;4915869;29;20052;-90
2022/06/20 09:21:48;;;;;;;7.03;3.40;;;;;;;16.51;87.01;99546.72;4908828;29;20032;-90
2022/06/20 09:24:30;;;;;;;6.90;3.72;;;;;;;16.47;87.75;99555.31;4912866;29;20033;-89
2022/06/20 09:27:09;;;;;;;9.75;4.25;;;;;;;16.68;87.62;99556.72;4874291;29;20513;-89
2022/06/20 09:30:18;;;;;;;8.07;3.70;;;;;;;16.88;86.44;99561.78;4895980;29;20039;-89
2022/06/20 09:33:20;;;;;;;7.30;3.72;;;;;;;16.84;85.68;99552.66;4868800;29;20032;-91
2022/06/20 09:36:07;;;;;;;7.38;4.10;;;;;;;16.87;85.03;99560.16;4885701;29;20028;-90
2022/06/20 09:39:05;;;;;;;9.75;3.58;;;;;;;16.97;86.15;99560.44;4912721;29;20032;-89
2022/06/20 09:41:49;;;;;;;9.55;3.53;;;;;;;16.93;84.71;99546.03;4912128;29;20032;-91
2022/06/20 09:44:24;;;;;;;9.40;4.00;;;;;;;17.15;85.09;99561.47;4897985;29;20031;-89
2022/06/20 09:46:50;;;;;;;6.43;4.00;;;;;;;17.28;83.85;99566.59;4895962;29;20040;-86
2022/06/20 09:49:48;;;;;;;8.02;4.30;;;;;;;17.51;84.16;99562.41;4902901;29;20173;-83
2022/06/20 09:52:24;;;;;;;11.32;4.40;;;;;;;17.47;83.96;99553.25;4907324;29;20144;-91
2022/06/20 09:55:12;;;;;;;7.50;3.65;;;;;;;17.32;82.86;99555.53;4914029;29;20096;-89
2022/06/20 09:58:14;;;;;;;6.60;3.85;;;;;;;17.45;82.91;99565.16;4896887;29;20043;-85
2022/06/20 10:00:54;;;;;;;9.68;4.78;;;;;;;17.16;82.71;99549.84;4898803;29;20386;-85
2022/06/20 10:03:34;;;;;;;9.32;4.60;;;;;;;17.28;83.93;99558.63;4885618;29;20024;-84
2022/06/20 10:06:39;;;;;;;7.85;3.90;;;;;;;17.51;84.81;99548.31;4908703;29;20032;-84
2022/06/20 10:09:36;;;;;;;9.45;4.53;;;;;;;17.52;83.69;99560.53;4905194;29;20044;-84
2022/06/20 10:12:03;;;;;;;7.93;4.15;;;;;;;17.71;82.87;99571.91;4893831;29;20027;-84
2022/06/20 10:14:48;;;;;;;7.32;4.13;;;;;;;17.80;81.88;99562.56;4881493;29;20114;-85
2022/06/20 10:17:30;;;;;;;9.02;4.57;;;;;;;18.01;83.35;99560.38;4904707;29;20039;-85
2022/06/20 10:20:10;;;;;;;10.75;4.57;;;;;;;17.87;82.14;99558.97;4891228;29;20028;-85
2022/06/20 10:22:49;;;;;;;8.68;4.68;;;;;;;17.83;81.60;99556.78;4905402;29;20090;-85
2022/06/20 10:25:26;;;;;;;7.20;4.45;;;;;;;17.84;81.08;99553.09;4906493;29;20103;-84
2022/06/20 10:28:13;;;;;;;7.32;4.45;;;;;;;17.43;81.10;99549.44;4896117;29;20063;-85
2022/06/20 10:31:12;;;;;;;8.63;4.18;;;;;;;17.63;81.91;99551.81;4872475;29;20044;-85
2022/06/20 10:34:20;;;;;;;8.40;4.78;;;;;;;17.89;83.29;99548.97;4888802;29;20031;-84
2022/06/20 10:36:45;;;;;;;6.57;4.25;;;;;;;17.99;79.27;99549.19;4886079;29;20382;-85
2022/06/20 10:39:21;;;;;;;5.50;3.92;;;;;;;18.11;80.36;99547.38;4873101;29;20035;-86
2022/06/20 10:42:04;;;;;;;10.07;4.78;;;;;;;18.35;80.31;99544.69;4909219;29;20073;-85
2022/06/20 10:44:41;;;;;;;10.15;4.55;;;;;;;18.21;78.82;99545.97;4886667;29;20075;-85
2022/06/20 10:47:10;;;;;;;8.13;4.72;;;;;;;17.99;80.01;99547.34;4886346;29;20036;-85
2022/06/20 10:49:52;;;;;;;10.65;4.40;;;;;;;18.38;79.62;99543.41;4905553;29;20445;-84
2022/06/20 10:52:34;;;;;;;8.13;4.50;;;;;;;18.11;78.65;99536.75;4905354;29;20047;-85
2022/06/20 10:55:25;;;;;;;9.38;4.43;;;;;;;18.22;79.35;99532.47;4896251;29;20032;-85
2022/06/20 10:58:00;;;;;;;6.93;4.22;;;;;;;18.22;79.21;99535.13;4885262;29;20566;-84
2022/06/20 11:00:31;;;;;;;12.07;4.72;;;;;;;18.36;80.10;99532.19;4907337;29;20119;-85
2022/06/20 11:03:41;;;;;;;9.65;4.57;;;;;;;18.08;78.11;99537.22;4886395;29;20066;-84
2022/06/20 11:06:26;;;;;;;9.23;4.95;;;;;;;18.41;77.39;99525.13;4880633;29;20044;-84
2022/06/20 11:09:00;;;;;;;8.93;4.30;;;;;;;18.34;80.07;99524.47;4884677;29;20037;-85
2022/06/20 11:11:32;;;;;;;6.78;4.70;;;;;;;18.64;79.08;99539.41;4905669;29;20566;-84
2022/06/20 11:14:12;;;;;;;9.55;4.95;;;;;;;18.76;79.39;99547.34;4906886;29;20032;-85
2022/06/20 11:16:50;;;;;;;10.45;5.55;;;;;;;19.05;77.02;99533.28;4884402;29;20380;-84
2022/06/20 11:19:30;;;;;;;10.77;4.63;;;;;;;18.97;76.94;99513.97;4901697;29;20036;-85
2022/06/20 11:22:18;;;;;;;9.85;4.35;;;;;;;18.95;77.80;99532.03;4905657;29;20055;-84
2022/06/20 11:24:50;;;;;;;9.95;5.70;;;;;;;19.03;77.15;99532.72;4884080;29;20123;-84
2022/06/20 11:27:47;;;;;;;6.25;4.47;;;;;;;19.01;76.43;99526.81;4908144;29;20028;-84
2022/06/20 11:30:33;;;;;;;7.70;4.80;;;;;;;19.03;75.49;99514.91;4888139;29;20119;-84
2022/06/20 11:33:07;;;;;;;6.70;4.60;;;;;;;19.12;75.26;99518.00;4909736;29;20036;-84
2022/06/20 11:35:47;;;;;;;8.10;4.95;;;;;;;18.97;75.55;99521.97;4907126;29;20038;-85
2022/06/20 11:38:39;;;;;;;6.72;4.20;;;;;;;19.29;75.94;99507.34;4909404;29;20036;-85
2022/06/20 11:41:40;;;;;;;12.20;5.63;;;;;;;19.32;76.36;99495.44;4885466;29;20387;-84
2022/06/20 11:44:44;;;;;;;7.53;4.90;;;;;;;19.34;76.29;99499.44;4888667;29;20118;-83
2022/06/20 11:47:29;;;;;;;7.45;4.95;;;;;;;19.74;74.73;99508.34;4871967;29;20039;-83
2022/06/20 11:50:30;;;;;;;8.57;4.97;;;;;;;19.76;73.56;99492.91;4888693;29;20079;-83
2022/06/20 11:53:21;;;;;;;7.90;4.40;;;;;;;19.91;73.62;99491.53;4870621;29;20078;-82
2022/06/20 11:55:52;;;;;;;8.80;4.80;;;;;;;20.04;73.31;99485.06;4872367;29;20037;-82
2022/06/20 11:58:34;;;;;;;9.95;4.38;;;;;;;20.17;72.64;99484.72;4907387;29;20036;-82
2022/06/20 12:01:15;;;;;;;5.90;4.45;;;;;;;19.78;71.56;99474.81;4903296;29;20661;-83
2022/06/20 12:04:04;;;;;;;6.72;4.70;;;;;;;19.89;71.26;99483.78;4887639;29;20160;-83
2022/06/20 12:06:48;;;;;;;7.20;4.22;;;;;;;20.16;68.97;99471.63;4890183;29;20112;-83
2022/06/20 12:09:14;;;;;;;5.68;4.43;;;;;;;20.20;70.35;99475.41;4906447;29;20048;-83
2022/06/20 12:11:48;;;;;;;9.88;4.53;;;;;;;20.22;71.11;99468.78;4873146;29;20044;-83
2022/06/20 12:14:45;;;;;;;8.38;4.55;;;;;;;19.92;71.37;99482.50;4887477;29;20041;-84
2022/06/20 12:17:29;;;;;;;6.72;4.90;;;;;;;20.17;71.76;99468.72;4888723;29;20067;-83
2022/06/20 12:23:21;;;;;;;7.40;4.75;;;;;;;20.29;70.52;99476.59;4907356;29;20024;-86
2022/06/20 12:25:55;;;;;;;8.68;4.10;;;;;;;20.36;70.66;99471.09;4906385;29;20039;-86
2022/06/20 12:28:26;;;;;;;6.95;4.30;;;;;;;20.08;67.71;99468.34;4907339;29;20035;-87